createdAt,value
2023-05-14T05:05:19.156Z,58.26
2023-05-14T05:07:47.518Z,61.82
2023-05-14T05:10:15.961Z,58.54
2023-05-14T05:12:44.422Z,57.75
2023-05-14T05:15:13.518Z,58.35
2023-05-14T05:17:42.063Z,58.64
2023-05-14T05:20:11.903Z,56.62
2023-05-14T05:22:41.709Z,53.43
2023-05-14T05:25:13.083Z,58.18
2023-05-14T05:27:41.413Z,54.52
2023-05-14T05:30:10.712Z,53.08
2023-05-14T05:32:39.375Z,57.85
2023-05-14T05:35:08.570Z,53.16
2023-05-14T05:37:37.052Z,54.02
2023-05-14T05:40:09.740Z,51.33
2023-05-14T05:42:38.194Z,49.47
2023-05-14T05:45:08.237Z,54.23
2023-05-14T05:47:37.508Z,42.54
2023-05-14T05:50:07.673Z,47.69
2023-05-14T05:52:36.604Z,45.58
2023-05-14T05:55:07.014Z,45.05
2023-05-14T05:57:36.026Z,50.76
2023-05-14T06:00:13.049Z,48.31
2023-05-14T06:02:42.749Z,47.86
2023-05-14T06:05:11.916Z,49.06
2023-05-14T06:07:40.488Z,47.68
2023-05-14T06:10:10.661Z,47.32
2023-05-14T06:12:39.200Z,48.21
2023-05-14T06:15:08.903Z,51.41
2023-05-14T06:17:37.316Z,50.97
2023-05-14T06:20:08.053Z,46.83
2023-05-14T06:22:37.040Z,46.61
2023-05-14T06:25:05.762Z,50.31
2023-05-14T06:27:36.378Z,49.58
2023-05-14T06:30:05.244Z,46.12
2023-05-14T06:32:35.531Z,48.93
2023-05-14T06:35:04.318Z,48.25
2023-05-14T06:37:34.170Z,47.29
2023-05-14T06:40:02.635Z,43.82
2023-05-14T06:42:35.364Z,45.30
2023-05-14T06:45:03.910Z,39.87
2023-05-14T06:47:34.930Z,43.65
2023-05-14T06:50:03.713Z,42.26
2023-05-14T06:52:34.761Z,42.02
2023-05-14T06:55:03.543Z,35.51
2023-05-14T06:57:35.489Z,36.81
2023-05-14T07:00:04.378Z,33.32
2023-05-14T07:02:36.363Z,34.74
2023-05-14T07:05:04.965Z,44.48
2023-05-14T07:07:33.852Z,38.68
2023-05-14T07:10:02.318Z,42.52
2023-05-14T07:12:30.985Z,38.43
2023-05-14T07:15:00.762Z,32.44
2023-05-14T07:17:29.261Z,33.63
2023-05-14T07:19:57.865Z,40.44
2023-05-14T07:22:26.163Z,37.54
2023-05-14T07:24:54.553Z,34.38
2023-05-14T07:27:23.236Z,34.38
2023-05-14T07:29:51.738Z,33.79
2023-05-14T07:32:21.995Z,35.73
2023-05-14T07:34:50.352Z,38.19
2023-05-14T07:37:18.717Z,38.12
2023-05-14T07:39:47.010Z,36.11
2023-05-14T07:42:24.583Z,39.95
2023-05-14T07:45:00.457Z,43.07
2023-05-14T07:47:31.074Z,41.17
2023-05-14T07:49:59.699Z,42.58
2023-05-14T07:52:28.028Z,43.77
2023-05-14T07:54:56.404Z,46.37
2023-05-14T07:57:24.988Z,40.56
2023-05-14T07:59:53.326Z,42.48
2023-05-14T08:02:21.970Z,42.82
2023-05-14T08:04:52.210Z,41.10
2023-05-14T08:07:20.977Z,42.96
2023-05-14T08:09:49.298Z,41.85
2023-05-14T08:12:17.864Z,41.37
2023-05-14T08:14:46.186Z,40.48
2023-05-14T08:17:14.829Z,42.16
2023-05-14T08:19:43.267Z,39.63
2023-05-14T08:22:13.252Z,39.99
2023-05-14T08:24:43.272Z,36.84
2023-05-14T08:27:11.615Z,36.55
2023-05-14T08:29:40.651Z,35.16
2023-05-14T08:32:22.040Z,39.51
2023-05-14T08:34:52.567Z,37.17
2023-05-14T08:37:22.648Z,37.35
2023-05-14T08:39:51.033Z,40.57
2023-05-14T08:42:21.887Z,40.03
2023-05-14T08:44:51.423Z,42.03
2023-05-14T08:47:20.262Z,41.75
2023-05-14T08:49:52.599Z,42.64
2023-05-14T08:52:23.304Z,43.35
2023-05-14T08:54:52.675Z,40.16
2023-05-14T08:57:24.879Z,42.88
2023-05-14T08:59:53.557Z,36.44
2023-05-14T09:02:25.352Z,35.72
2023-05-14T09:04:56.902Z,34.31
2023-05-14T09:07:29.227Z,38.29
2023-05-14T09:09:57.733Z,39.44
2023-05-14T09:12:26.348Z,39.65
2023-05-14T09:14:54.899Z,40.55
2023-05-14T09:17:23.321Z,37.56
2023-05-14T09:19:53.394Z,35.58
2023-05-14T09:22:22.554Z,35.79
2023-05-14T09:25:05.573Z,37.02
2023-05-14T09:27:35.850Z,39.40
2023-05-14T09:30:10.138Z,40.19
2023-05-14T09:32:40.355Z,39.92
2023-05-14T09:35:17.925Z,39.87
2023-05-14T09:37:47.949Z,41.08
2023-05-14T09:40:19.193Z,39.61
2023-05-14T09:42:49.629Z,41.16
2023-05-14T09:45:18.711Z,40.95
2023-05-14T09:47:47.259Z,40.73
2023-05-14T09:50:15.784Z,39.76
2023-05-14T09:52:44.124Z,40.46
2023-05-14T09:55:12.558Z,38.96
2023-05-14T09:57:42.306Z,35.87
2023-05-14T10:00:12.962Z,35.35
2023-05-14T10:02:42.337Z,36.52
2023-05-14T10:05:11.593Z,38.60
2023-05-14T10:07:43.045Z,40.56
2023-05-14T10:10:16.481Z,39.89
2023-05-14T10:12:52.516Z,39.80
2023-05-14T10:15:23.373Z,37.97
2023-05-14T10:17:57.554Z,37.16
2023-05-14T10:20:26.739Z,38.18
2023-05-14T10:22:55.537Z,39.17
2023-05-14T10:25:24.706Z,39.32
2023-05-14T10:27:54.769Z,38.92
2023-05-14T10:30:24.640Z,37.90
2023-05-14T10:33:07.925Z,37.89
2023-05-14T10:36:02.125Z,37.80
2023-05-14T10:38:33.552Z,39.65
2023-05-14T10:41:03.254Z,40.46
2023-05-14T10:43:37.318Z,38.33
2023-05-14T10:46:05.969Z,38.33
2023-05-14T10:48:34.899Z,36.98
2023-05-14T10:51:03.558Z,34.91
2023-05-14T10:53:34.692Z,34.78
2023-05-14T10:56:07.910Z,35.61
2023-05-14T10:58:41.819Z,34.27
2023-05-14T11:01:13.281Z,32.27
2023-05-14T11:03:43.320Z,33.00
2023-05-14T11:06:13.244Z,37.78
2023-05-14T11:08:42.966Z,40.02
2023-05-14T11:11:11.673Z,37.56
2023-05-14T11:13:42.660Z,39.17
2023-05-14T11:16:22.513Z,40.99
2023-05-14T11:18:56.026Z,40.56
2023-05-14T11:21:24.632Z,39.74
2023-05-14T11:23:53.097Z,42.29
2023-05-14T11:26:21.900Z,40.69
2023-05-14T11:28:51.881Z,40.09
2023-05-14T11:31:20.812Z,43.57
2023-05-14T11:33:49.172Z,42.35
2023-05-14T11:36:17.659Z,42.13
2023-05-14T11:38:51.574Z,45.80
2023-05-14T11:41:21.774Z,43.43
2023-05-14T11:43:52.079Z,43.81
2023-05-14T11:46:20.780Z,44.31
2023-05-14T11:48:49.549Z,45.48
2023-05-14T11:51:17.996Z,43.69
2023-05-14T11:53:46.906Z,43.27
2023-05-14T11:56:15.374Z,44.43
2023-05-14T11:58:49.504Z,44.28
2023-05-14T12:01:19.441Z,42.37
2023-05-14T12:03:48.516Z,45.03
2023-05-14T12:06:16.939Z,42.15
2023-05-14T12:08:45.304Z,43.30
2023-05-14T12:11:14.053Z,44.47
2023-05-14T12:13:42.492Z,41.85
2023-05-14T12:16:11.178Z,43.40
2023-05-14T12:18:41.043Z,40.57
2023-05-14T12:21:12.191Z,41.12
2023-05-14T12:23:40.617Z,44.70
2023-05-14T12:26:10.287Z,43.45
2023-05-14T12:28:43.639Z,44.11
2023-05-14T12:31:12.359Z,43.78
2023-05-14T12:33:42.099Z,43.92
2023-05-14T12:36:21.143Z,44.20
2023-05-14T12:38:50.415Z,44.05
2023-05-14T12:41:19.526Z,43.95
2023-05-14T12:43:50.148Z,46.37
2023-05-14T12:46:18.607Z,45.35
2023-05-14T12:48:49.026Z,43.91
2023-05-14T12:51:18.051Z,43.44
2023-05-14T12:53:46.473Z,43.47
2023-05-14T12:56:15.158Z,43.06
2023-05-14T12:58:43.515Z,48.09
2023-05-14T13:01:11.890Z,43.14
2023-05-14T13:03:40.350Z,45.07
2023-05-14T13:06:10.357Z,42.58
2023-05-14T13:08:40.549Z,43.28
2023-05-14T13:11:10.537Z,44.90
2023-05-14T13:13:39.298Z,43.52
2023-05-14T13:16:08.194Z,44.21
2023-05-14T13:18:36.685Z,43.60
2023-05-14T13:21:06.552Z,42.65
2023-05-14T13:23:36.698Z,42.91
2023-05-14T13:26:04.936Z,44.02
2023-05-14T13:28:33.340Z,43.46
2023-05-14T13:31:07.371Z,44.09
2023-05-14T13:33:41.224Z,44.26
2023-05-14T13:36:10.838Z,45.34
2023-05-14T13:38:41.458Z,44.52
2023-05-14T13:41:09.865Z,44.34
2023-05-14T13:43:38.301Z,45.70
2023-05-14T13:46:07.582Z,45.14
2023-05-14T13:48:37.526Z,45.62
2023-05-14T13:51:05.886Z,44.63
2023-05-14T13:53:34.245Z,42.09
2023-05-14T13:56:04.230Z,43.96
2023-05-14T13:58:32.638Z,44.35
2023-05-14T14:01:01.046Z,42.95
2023-05-14T14:03:29.551Z,43.65
2023-05-14T14:05:57.942Z,44.94
2023-05-14T14:08:26.521Z,44.56
2023-05-14T14:10:55.866Z,44.84
2023-05-14T14:13:26.117Z,45.80
2023-05-14T14:15:54.526Z,46.50
2023-05-14T14:18:23.434Z,46.16
2023-05-14T14:20:51.778Z,46.81
2023-05-14T14:23:20.594Z,46.14
2023-05-14T14:25:49.195Z,45.92
2023-05-14T14:28:17.446Z,46.65
2023-05-14T14:30:47.264Z,45.96
2023-05-14T14:33:16.003Z,46.09
2023-05-14T14:35:44.376Z,46.31
2023-05-14T14:38:12.764Z,46.47
2023-05-14T14:40:41.212Z,46.67
2023-05-14T14:43:10.258Z,46.53
2023-05-14T14:45:38.736Z,46.53
2023-05-14T14:48:28.488Z,46.62
2023-05-14T14:50:57.108Z,46.22
2023-05-14T14:53:25.993Z,46.65
2023-05-14T14:55:55.227Z,46.84
2023-05-14T14:58:23.930Z,46.98
2023-05-14T15:00:54.257Z,47.21
2023-05-14T15:03:23.396Z,46.96
2023-05-14T15:05:53.859Z,47.04
2023-05-14T15:08:25.960Z,47.12
2023-05-14T15:10:54.636Z,46.75
2023-05-14T15:13:24.184Z,49.59
2023-05-14T15:15:53.239Z,46.41
2023-05-14T15:18:22.304Z,48.39
2023-05-14T15:20:53.447Z,46.51
2023-05-14T15:23:22.262Z,48.06
2023-05-14T15:25:51.461Z,46.86
2023-05-14T15:28:20.431Z,47.96
2023-05-14T15:30:49.844Z,47.50
2023-05-14T15:33:19.697Z,49.29
2023-05-14T15:35:48.843Z,47.59
2023-05-14T15:38:18.692Z,48.06
2023-05-14T15:40:47.142Z,47.53
2023-05-14T15:43:15.669Z,49.92
2023-05-14T15:45:46.272Z,52.13
2023-05-14T15:48:14.903Z,49.22
2023-05-14T15:50:44.082Z,47.76
2023-05-14T15:53:12.934Z,48.21
2023-05-14T15:55:43.182Z,49.15
2023-05-14T15:58:12.908Z,48.31
2023-05-14T16:00:41.417Z,48.07
2023-05-14T16:03:10.197Z,47.63
2023-05-14T16:05:38.752Z,48.12
2023-05-14T16:08:07.736Z,48.84
2023-05-14T16:10:36.363Z,48.22
2023-05-14T16:13:06.286Z,48.48
2023-05-14T16:15:34.637Z,49.29
2023-05-14T16:18:04.097Z,59.54
2023-05-14T16:20:32.604Z,59.68
2023-05-14T16:23:01.087Z,54.80
2023-05-14T16:25:31.830Z,52.11
2023-05-14T16:28:00.334Z,48.04
2023-05-14T16:30:30.141Z,49.09
2023-05-14T16:32:58.678Z,49.29
2023-05-14T16:35:27.155Z,49.08
2023-05-14T16:37:55.673Z,59.36
2023-05-14T16:40:24.611Z,52.93
2023-05-14T16:42:53.742Z,51.36
2023-05-14T16:45:22.731Z,50.13
2023-05-14T16:47:59.337Z,55.48
2023-05-14T16:50:28.783Z,52.97
2023-05-14T16:55:26.316Z,52.73
2023-05-14T16:57:55.875Z,58.78
2023-05-14T17:00:24.761Z,52.12
2023-05-14T17:02:55.704Z,53.17
2023-05-14T17:05:25.666Z,53.16
2023-05-14T17:10:22.778Z,63.23
2023-05-14T17:12:52.183Z,61.67
2023-05-14T17:18:03.473Z,60.98
2023-05-14T17:20:32.605Z,54.33
2023-05-14T17:23:02.604Z,55.66
2023-05-14T17:25:33.316Z,55.23
2023-05-14T17:28:04.902Z,57.71
2023-05-14T17:33:17.855Z,56.28
2023-05-14T17:35:47.429Z,55.31
2023-05-14T17:38:17.556Z,54.93
2023-05-14T17:40:47.419Z,57.58
2023-05-14T17:43:17.492Z,57.38
2023-05-14T17:45:53.795Z,55.92
2023-05-14T17:48:29.291Z,56.67
2023-05-14T17:51:01.993Z,58.69
2023-05-14T17:53:32.624Z,58.62
2023-05-14T17:56:03.145Z,60.09
2023-05-14T17:58:32.863Z,58.26
2023-05-14T18:01:02.133Z,58.81
2023-05-14T18:03:34.196Z,59.10
2023-05-14T18:06:03.846Z,58.60
2023-05-14T18:08:34.484Z,59.29
2023-05-14T18:11:04.781Z,62.13
2023-05-14T18:13:33.503Z,59.81
2023-05-14T18:16:01.976Z,58.80
2023-05-14T18:18:32.313Z,59.04
2023-05-14T18:21:01.467Z,59.23
2023-05-14T18:23:29.953Z,59.96
2023-05-14T18:25:58.547Z,62.14
2023-05-14T18:28:27.006Z,60.33
2023-05-14T18:30:56.055Z,62.52
2023-05-14T18:33:24.557Z,62.09
2023-05-14T18:35:54.406Z,62.34
2023-05-14T18:38:22.935Z,66.91
2023-05-14T18:40:51.558Z,62.36
2023-05-14T18:43:20.037Z,63.31
2023-05-14T18:45:48.581Z,62.57
2023-05-14T18:48:17.500Z,64.99
2023-05-14T18:50:46.260Z,63.56
2023-05-14T18:53:16.611Z,63.98
2023-05-14T18:55:45.076Z,64.48
2023-05-14T18:58:14.691Z,64.88
2023-05-14T19:00:43.446Z,65.41
2023-05-14T19:03:12.465Z,65.91
2023-05-14T19:05:41.163Z,65.57
2023-05-14T19:08:10.233Z,65.79
2023-05-14T19:10:40.221Z,66.74
2023-05-14T19:13:08.664Z,66.34
2023-05-14T19:15:37.241Z,67.10
2023-05-14T19:18:06.085Z,67.40
2023-05-14T19:20:34.610Z,67.75
2023-05-14T19:23:03.166Z,67.77
2023-05-14T19:25:32.212Z,67.60
2023-05-14T19:28:04.996Z,67.69
2023-05-14T19:30:33.737Z,68.27
2023-05-14T19:33:02.150Z,68.09
2023-05-14T19:35:31.036Z,68.03
2023-05-14T19:37:59.585Z,69.14
2023-05-14T19:40:28.813Z,68.79
2023-05-14T19:42:57.321Z,68.98
2023-05-14T19:45:27.425Z,69.17
2023-05-14T19:47:55.962Z,69.92
2023-05-14T19:50:24.627Z,69.73
2023-05-14T19:52:53.006Z,69.90
2023-05-14T19:55:21.365Z,70.05
2023-05-14T19:57:50.575Z,70.27
2023-05-14T20:00:19.385Z,70.30
2023-05-14T20:02:49.218Z,70.21
2023-05-14T20:05:17.942Z,70.73
2023-05-14T20:07:48.987Z,71.42
2023-05-14T20:10:17.538Z,70.90
2023-05-14T20:12:46.105Z,72.28
2023-05-14T20:15:14.490Z,72.00
2023-05-14T20:17:42.887Z,71.88
2023-05-14T20:20:13.178Z,72.46
2023-05-14T20:22:42.951Z,72.37
2023-05-14T20:25:11.686Z,72.54
2023-05-14T20:27:40.401Z,72.84
2023-05-14T20:30:10.149Z,73.26
2023-05-14T20:32:38.766Z,73.47
2023-05-14T20:35:08.455Z,73.20
2023-05-14T20:37:38.305Z,72.99
2023-05-14T20:40:10.586Z,73.41
2023-05-14T20:42:39.034Z,73.85
2023-05-14T20:45:08.561Z,74.53
2023-05-14T20:47:37.160Z,73.75
2023-05-14T20:50:05.959Z,74.36
2023-05-14T20:52:34.755Z,76.02
2023-05-14T20:55:04.683Z,73.73
2023-05-14T20:57:35.398Z,74.55
2023-05-14T21:00:08.300Z,75.19
2023-05-14T21:02:39.857Z,75.38
2023-05-14T21:05:08.982Z,75.79
2023-05-14T21:07:37.538Z,76.54
2023-05-14T21:10:09.385Z,76.27
2023-05-14T21:12:37.795Z,77.75
2023-05-14T21:15:06.816Z,76.68
2023-05-14T21:17:36.688Z,76.52
2023-05-14T21:20:05.402Z,76.55
2023-05-14T21:22:33.952Z,76.77
2023-05-14T21:25:02.518Z,76.25
2023-05-14T21:27:35.094Z,77.16
2023-05-14T21:30:03.622Z,77.02
2023-05-14T21:32:34.288Z,77.04
2023-05-14T21:35:03.410Z,77.48
2023-05-14T21:37:32.953Z,77.46
2023-05-14T21:40:01.376Z,78.41
2023-05-14T21:42:31.322Z,77.99
2023-05-14T21:45:01.508Z,78.37
2023-05-14T21:47:30.022Z,78.15
2023-05-14T21:49:58.497Z,79.22
2023-05-14T21:52:26.948Z,77.69
2023-05-14T21:54:55.252Z,78.65
2023-05-14T21:57:24.817Z,77.63
2023-05-14T21:59:55.173Z,77.59
2023-05-14T22:02:25.013Z,78.61
2023-05-14T22:04:53.407Z,78.21
2023-05-14T22:07:22.533Z,78.67
2023-05-14T22:09:50.965Z,79.22
2023-05-14T22:12:19.281Z,79.33
2023-05-14T22:14:48.299Z,81.55
2023-05-14T22:17:16.875Z,81.13
2023-05-14T22:19:46.677Z,78.56
2023-05-14T22:22:15.013Z,79.24
2023-05-14T22:24:43.463Z,79.76
2023-05-14T22:27:11.873Z,80.04
2023-05-14T22:29:40.191Z,80.09
2023-05-14T22:32:10.414Z,80.64
2023-05-14T22:34:38.872Z,81.43
2023-05-14T22:37:09.088Z,80.33
2023-05-14T22:39:38.147Z,81.57
2023-05-14T22:42:07.068Z,81.83
2023-05-14T22:44:35.559Z,81.70
2023-05-14T22:47:05.372Z,80.68
2023-05-14T22:49:33.703Z,82.03
2023-05-14T22:52:02.054Z,81.56
2023-05-14T22:54:31.852Z,82.71
2023-05-14T22:57:00.153Z,83.54
2023-05-14T22:59:28.435Z,81.62
2023-05-14T23:01:57.053Z,82.07
2023-05-14T23:04:25.481Z,83.58
2023-05-14T23:06:53.870Z,82.41
2023-05-14T23:09:22.296Z,82.52
2023-05-14T23:11:52.559Z,82.80
2023-05-14T23:14:21.256Z,82.93
2023-05-14T23:16:49.697Z,83.55
2023-05-14T23:19:18.536Z,83.19
2023-05-14T23:21:46.948Z,82.97
2023-05-14T23:24:15.319Z,85.18
2023-05-14T23:26:43.635Z,84.32
2023-05-14T23:29:13.309Z,84.43
2023-05-14T23:31:43.819Z,83.64
2023-05-14T23:34:12.199Z,83.96
2023-05-14T23:36:40.666Z,84.23
2023-05-14T23:39:09.057Z,84.25
2023-05-14T23:41:37.369Z,82.79
2023-05-14T23:44:06.733Z,83.13
2023-05-14T23:46:36.506Z,83.62
2023-05-14T23:49:04.877Z,83.38
2023-05-14T23:51:33.643Z,84.18
2023-05-14T23:54:02.065Z,84.81
2023-05-14T23:56:30.458Z,84.01
2023-05-14T23:58:58.858Z,83.45
